Stations météo

réclame
Mon MeteoGroup
Feldberg/Schwarzwald, Allemagne (10908): Température de l'air & dewpoint: 02.07.2020 15:00:00 - 08.07.2020 15:00:00 (CEST)Feldberg/Schwarzwald, Allemagne (10908): Température de l'air 5cm & Température de l'air -5cm: 02.07.2020 15:00:00 - 08.07.2020 15:00:00 (CEST)Feldberg/Schwarzwald, Allemagne (10908): Température de l'air -20cm & Température de l'air -100cm: 02.07.2020 15:00:00 - 08.07.2020 15:00:00 (CEST)Feldberg/Schwarzwald, Allemagne (10908): Vitesse du vent & gusts: 02.07.2020 15:00:00 - 08.07.2020 15:00:00 (CEST)Feldberg/Schwarzwald, Allemagne (10908): Direction du vent: 02.07.2020 15:00:00 - 08.07.2020 15:00:00 (CEST)Feldberg/Schwarzwald, Allemagne (10908): visibility: 02.07.2020 15:00:00 - 08.07.2020 15:00:00 (CEST)Feldberg/Schwarzwald, Allemagne (10908): Ensoleillement: 02.07.2020 15:00:00 - 08.07.2020 15:00:00 (CEST)Feldberg/Schwarzwald, Allemagne (10908): Quantités de précipitations: 02.07.2020 15:00:00 - 08.07.2020 15:00:00 (CEST)
Date & Time tt [°C] td [°C] tt 5cm [°C] tt -5cm [°C] tt -20cm [°C] tt -100cm [°C] ff [km/h] ff [knt] fx [km/h] fx [knt] dd vv [km] sd [min] rr [mm]
08.07.2020 15:00:00 14,6 6,7 21,3 24,8 12,9 9,7 14 8 35 19 W 67 60 0,0
08.07.2020 14:00:00 13,6 5,7 17,3 23,0 12,3 9,7 24 13 33 18 W 25 49 0,0
08.07.2020 13:00:00 13,3 5,9 18,7 22,1 11,8 9,7 13 7 22 12 W 36 60 0,0
08.07.2020 12:00:00 12,3 6,4 17,2 18,9 11,5 9,7 16 8 29 15 WSW 34 60 0,0
08.07.2020 11:00:00 11,8 4,3 16,4 15,9 11,4 9,7 14 8 26 14 WSW 39 60 0,0
08.07.2020 10:00:00 10,6 4,6 14,3 12,9 11,4 9,7 20 11 40 21 WSW 75 60 0,0
08.07.2020 09:00:00 9,8 3,7 11,9 10,5 11,6 9,7 28 15 40 21 WSW 65 60 0,0
08.07.2020 08:00:00 9,3 4,2 10,1 8,8 11,8 9,7 23 12 31 17 W 49 60 0,0
08.07.2020 07:00:00 8,7 4,2 8,0 7,9 12,0 9,7 23 13 29 16 WSW 45 48 0,0
08.07.2020 06:00:00 9,0 4,1 6,8 7,9 12,3 9,7 24 13 29 15 WSW 52 0 0,0
08.07.2020 05:00:00 9,2 4,1 6,4 8,2 12,6 9,7 22 12 26 14 W 49 0 0,0
08.07.2020 04:00:00 9,2 4,5 6,4 8,6 12,9 9,7 19 10 26 14 WNW 51 0 0,0
08.07.2020 03:00:00 9,6 4,6 6,9 9,1 13,3 9,7 22 12 31 17 WSW 52 0 0,0
08.07.2020 02:00:00 9,7 4,9 7,1 9,6 13,6 9,7 24 13 27 14 SW 49 0 0,0
08.07.2020 01:00:00 9,7 4,7 7,2 10,3 13,9 9,7 19 10 23 12 WSW 45 0 0,0
08.07.2020 00:00:00 9,8 4,6 6,4 11,2 14,2 9,7 14 8 17 9 W 64 0 0,0
07.07.2020 23:00:00 10,0 4,2 6,5 12,5 14,4 9,7 13 7 14 8 W 59 0 0,0
07.07.2020 22:00:00 10,0 4,0 7,0 14,1 14,5 9,7 11 6 16 8 NW 45 14 0,0
07.07.2020 21:00:00 10,8 4,0 10,2 16,0 14,4 9,7 12 7 21 12 NNW 62 60 0,0
07.07.2020 20:00:00 11,9 4,2 11,7 17,8 14,2 9,7 16 9 26 14 WNW 38 60 0,0
07.07.2020 19:00:00 11,8 3,2 12,4 20,9 13,7 9,7 18 10 23 13 WNW 48 60 0,0
07.07.2020 18:00:00 12,0 4,4 15,4 22,4 13,2 9,7 13 7 26 14 N 48 60 0,0
07.07.2020 17:00:00 12,2 5,1 17,2 22,7 12,6 9,7 11 6 21 12 N 41 60 0,0
07.07.2020 16:00:00 11,2 4,8 17,1 22,1 12,0 9,7 12 7 23 12 NNE 36 58 0,0
07.07.2020 15:00:00 10,5 5,0 12,9 21,3 11,4 9,7 14 8 30 16 NNE 52 48 0,0
07.07.2020 14:00:00 10,5 4,6 16,4 19,9 10,9 9,7 13 7 23 12 N 32 50 0,0
07.07.2020 13:00:00 9,9 4,1 13,0 18,9 10,4 9,7 10 6 23 12 N 46 55 0,0
07.07.2020 12:00:00 9,6 3,2 14,8 16,1 10,1 9,7 12 6 22 12 N 66 57 0,0
07.07.2020 11:00:00 8,9 1,7 10,9 14,1 9,9 9,7 6 4 15 8 NE 55 46 0,0
07.07.2020 10:00:00 7,9 0,7 12,0 11,0 9,9 9,6 9 5 21 11 ESE 60 60 0,0
07.07.2020 09:00:00 6,7 2,4 9,5 8,4 10,0 9,6 16 9 23 13 E 44 60 0,0
07.07.2020 08:00:00 5,9 3,2 7,2 6,3 10,2 9,6 18 10 26 14 E 38 60 0,0
07.07.2020 07:00:00 5,6 3,0 5,4 5,2 10,5 9,6 18 10 23 12 E 36 49 0,0
07.07.2020 06:00:00 4,9 3,0 2,4 5,2 10,8 9,6 16 9 21 12 NE 35 0 0,0
07.07.2020 05:00:00 5,1 3,1 3,3 5,5 11,0 9,6 16 9 22 12 NNE 35 0 0,0
07.07.2020 04:00:00 5,4 3,0 3,7 5,8 11,3 9,6 19 11 24 13 NNE 33 0 0,0
07.07.2020 03:00:00 5,5 3,1 3,8 6,1 11,6 9,6 19 10 23 12 NNE 31 0 0,0
07.07.2020 02:00:00 5,9 3,0 3,8 6,5 11,9 9,6 14 8 24 13 NNE 33 0 0,0
07.07.2020 01:00:00 6,0 2,9 4,4 6,9 12,3 9,6 21 11 26 14 N 35 0 0,0
07.07.2020 00:00:00 6,1 2,8 4,7 7,5 12,6 9,6 21 11 32 18 N 40 0 0,0
06.07.2020 23:00:00 6,1 2,4 4,5 8,2 12,8 9,6 27 15 38 21 NNW 40 0 0,0
06.07.2020 22:00:00 6,4 2,3 5,0 9,2 13,1 9,6 27 14 35 19 NNW 40 10 0,0
06.07.2020 21:00:00 7,4 1,8 6,1 10,5 13,2 9,6 29 15 45 24 NW 52 28 0,0
06.07.2020 20:00:00 7,7 2,5 7,6 11,9 13,3 9,6 27 15 40 21 NNW 43 0 0,0
06.07.2020 19:00:00 7,8 3,4 8,6 13,0 13,3 9,6 24 13 39 21 NNW 50 1 0,0
06.07.2020 18:00:00 8,1 3,4 9,0 14,5 13,2 9,6 27 15 39 21 NNW 42 0 0,0
06.07.2020 17:00:00 8,9 4,9 10,5 16,2 13,0 9,6 19 10 39 21 NW 37 23 0,0
06.07.2020 16:00:00 9,0 5,4 11,6 15,4 12,9 9,6 23 12 42 23 NW 42 22 0,0
06.07.2020 15:00:00 8,0 7,3 9,3 15,6 12,8 9,6 28 15 42 23 NW 20 16 0,0
06.07.2020 14:00:00 8,0 7,3 10,3 14,6 12,8 9,6 27 15 45 25 W 35 23 0,0
06.07.2020 13:00:00 7,1 6,5 9,4 12,9 12,9 9,6 37 20 53 29 W 21 4 0,0
06.07.2020 12:00:00 7,8 7,8 9,5 12,4 12,9 9,6 33 18 56 30 W 0,1 0 0,1
06.07.2020 11:00:00 8,0 8,0 9,1 12,4 13,0 9,6 28 15 48 26 W - 0 0,2
06.07.2020 10:00:00 8,6 8,6 9,8 12,6 13,1 9,6 21 11 35 19 NW 0,1 0 0,4
06.07.2020 09:00:00 9,0 9,0 10,6 12,5 13,2 9,6 27 14 42 23 NW 0,1 0 0,7
06.07.2020 08:00:00 9,5 9,5 9,9 12,6 13,3 9,6 27 15 61 33 NW 0,1 0 2,2
06.07.2020 07:00:00 11,6 11,6 11,9 12,7 13,4 9,6 42 23 74 40 W 0,1 0 0,0
06.07.2020 06:00:00 11,9 11,9 12,1 12,8 13,5 9,6 48 26 69 37 WSW 0,1 0 0,0
06.07.2020 05:00:00 11,9 11,8 12,2 12,8 13,6 9,6 49 26 67 36 WSW 0,1 0 0,0
06.07.2020 04:00:00 12,1 11,7 12,2 12,9 13,8 9,6 44 24 67 36 WSW 18 0 0,0
06.07.2020 03:00:00 12,6 10,8 11,9 13,2 13,9 9,6 45 24 64 35 WSW 52 0 0,0
06.07.2020 02:00:00 12,9 11,1 12,4 13,7 14,0 9,6 47 26 61 33 WSW 56 0 0,0
06.07.2020 01:00:00 13,1 12,2 13,1 14,0 14,1 9,6 40 21 63 34 W 38 0 0,0
06.07.2020 00:00:00 13,7 12,4 13,5 14,2 14,2 9,6 39 21 61 33 WSW 41 0 0,0
05.07.2020 23:00:00 13,9 12,2 13,5 14,5 14,3 9,6 39 21 52 28 WSW 51 0 0,0
05.07.2020 22:00:00 13,9 12,0 13,4 15,0 14,3 9,6 34 18 49 27 SW 75 10 0,0
05.07.2020 21:00:00 14,6 11,5 13,9 16,3 14,3 9,6 37 20 48 26 WSW 74 60 0,0
05.07.2020 20:00:00 15,1 11,2 15,2 17,4 14,1 9,6 35 19 47 25 WSW 58 60 0,0
05.07.2020 19:00:00 15,1 11,5 16,4 19,2 13,8 9,6 35 19 47 26 WSW 58 58 0,0
05.07.2020 18:00:00 15,0 12,1 18,6 19,8 13,5 9,6 37 20 50 27 WSW 53 45 0,0
05.07.2020 17:00:00 14,7 12,5 17,2 19,1 13,2 9,6 33 18 48 26 WSW 70 24 0,0
05.07.2020 16:00:00 14,2 12,5 16,2 18,8 12,8 9,6 31 17 53 29 WSW 75 12 0,0
05.07.2020 15:00:00 14,2 12,4 18,8 18,5 12,5 9,6 31 17 59 32 WSW 66 22 0,0
05.07.2020 14:00:00 14,3 12,1 17,8 18,1 12,3 9,6 44 24 63 34 WSW 37 49 0,0
05.07.2020 13:00:00 13,8 12,3 17,1 16,1 12,1 9,6 43 23 64 35 WSW 75 25 0,0
05.07.2020 12:00:00 12,4 12,0 15,0 14,7 12,0 9,6 43 23 59 32 SW 58 3 0,0
05.07.2020 11:00:00 11,8 11,7 14,3 13,7 11,9 9,6 41 22 52 28 SW 3,4 0 0,0
05.07.2020 10:00:00 11,1 11,0 12,7 13,0 11,9 9,6 34 18 56 30 SW 0,1 10 0,0
05.07.2020 09:00:00 10,8 10,6 12,4 11,8 11,9 9,6 39 21 59 32 SW 0,5 24 0,0
05.07.2020 08:00:00 10,4 10,3 11,2 11,0 12,1 9,6 50 27 69 38 SW 5 13 0,0
05.07.2020 07:00:00 9,8 9,7 10,2 10,4 12,2 9,6 50 27 68 37 SW 0,1 1 0,0
05.07.2020 06:00:00 9,8 9,2 9,4 10,2 12,4 9,6 52 28 63 34 SW 25 0 0,0
05.07.2020 05:00:00 9,8 8,9 9,1 10,2 12,5 9,6 49 26 63 34 SW 37 0 0,0
05.07.2020 04:00:00 10,8 8,5 9,7 10,3 12,7 9,6 44 24 52 28 WSW 54 0 0,0
05.07.2020 03:00:00 11,1 8,0 9,8 10,5 13,0 9,6 42 23 54 29 WSW 70 0 0,0
05.07.2020 02:00:00 11,0 7,3 9,7 10,6 13,2 9,6 40 22 58 31 WSW 70 0 0,0
05.07.2020 01:00:00 11,1 6,9 9,9 10,9 13,4 9,6 41 22 52 28 WSW 56 0 0,0
05.07.2020 00:00:00 11,4 7,0 9,8 11,5 13,6 9,6 37 20 46 25 WSW 57 0 0,0
04.07.2020 23:00:00 11,5 7,0 10,0 12,3 13,8 9,6 32 17 40 22 WSW 60 0 0,0
04.07.2020 22:00:00 11,5 7,4 10,2 13,3 13,9 9,6 27 15 37 20 WSW 62 1 0,0
04.07.2020 21:00:00 11,8 6,8 10,9 14,5 13,9 9,6 25 14 31 17 WSW 57 0 0,0
04.07.2020 20:00:00 12,4 6,8 12,0 16,0 13,7 9,6 24 13 32 17 WSW 61 25 0,0
04.07.2020 19:00:00 13,7 7,6 14,7 18,2 13,4 9,6 20 11 37 20 SW 66 60 0,0
04.07.2020 18:00:00 13,2 7,3 15,8 19,8 13,0 9,6 27 15 35 19 SSW 43 60 0,0
04.07.2020 17:00:00 13,8 8,1 17,1 20,1 12,6 9,6 18 10 35 19 WSW 47 56 0,0
04.07.2020 16:00:00 12,7 6,5 17,0 19,9 12,2 9,6 27 15 40 22 SSW 39 60 0,0
04.07.2020 15:00:00 12,5 7,5 17,1 18,9 11,8 9,6 27 15 35 19 SSW 53 45 0,0
04.07.2020 14:00:00 12,1 7,0 17,2 17,3 11,5 9,6 20 11 34 18 SSW 75 37 0,0
04.07.2020 13:00:00 11,2 7,0 15,9 14,9 11,3 9,6 13 7 24 13 W 52 10 0,0
04.07.2020 12:00:00 10,6 7,7 12,4 14,7 11,0 9,6 15 8 23 12 SSW 53 9 0,0
04.07.2020 11:00:00 10,3 6,5 11,8 14,3 10,8 9,6 11 6 18 10 WNW 59 13 0,0
04.07.2020 10:00:00 10,2 6,4 13,6 13,2 10,8 9,6 11 6 18 10 SW 62 42 0,0
04.07.2020 09:00:00 10,1 6,9 12,9 10,6 10,9 9,6 9 5 17 9 SW 53 59 0,0
04.07.2020 08:00:00 9,4 5,9 10,7 8,1 11,1 9,6 14 8 19 11 SW 46 60 0,0
04.07.2020 07:00:00 9,3 5,5 7,6 6,6 11,3 9,6 16 9 18 10 SW 50 51 0,0
04.07.2020 06:00:00 8,6 5,4 2,4 6,5 11,6 9,6 3 2 8 4 W 54 0 0,0
04.07.2020 05:00:00 8,4 5,3 3,9 7,1 11,9 9,6 6 3 8 5 NNW 51 0 0,0
04.07.2020 04:00:00 8,6 5,9 5,1 7,6 12,2 9,6 7 4 9 5 NW 48 0 0,0
04.07.2020 03:00:00 9,2 5,8 5,9 8,0 12,5 9,6 5 3 13 7 N 49 0 0,0
04.07.2020 02:00:00 9,3 5,2 5,8 8,3 12,8 9,6 7 4 8 5 N 47 0 0,0
04.07.2020 01:00:00 9,5 5,7 2,9 9,1 13,0 9,6 5 3 7 4 NW 56 0 0,0
04.07.2020 00:00:00 9,5 5,7 4,2 10,1 13,3 9,6 4 2 8 4 W 63 0 0,0
03.07.2020 23:00:00 9,5 5,9 4,0 11,3 13,4 9,6 2 1 4 2 N 50 0 0,0
03.07.2020 22:00:00 9,8 6,1 5,6 13,0 13,4 9,6 4 2 13 7 NE 47 0 0,0
03.07.2020 21:00:00 10,2 6,2 10,2 14,5 13,4 9,6 11 6 21 12 N 48 35 0,0
03.07.2020 20:00:00 10,8 6,3 12,5 15,2 13,3 9,6 13 7 18 10 N 75 26 0,0
03.07.2020 19:00:00 10,8 7,3 12,7 16,0 13,1 9,6 10 6 19 10 NNE 47 0 0,0
03.07.2020 18:00:00 10,8 7,5 12,2 16,5 12,9 9,6 9 5 18 10 N 68 0 0,0
03.07.2020 17:00:00 10,9 7,0 12,8 17,5 12,6 9,6 13 7 24 13 N 43 0 0,0
03.07.2020 16:00:00 11,7 4,9 15,0 17,7 12,3 9,6 13 7 26 14 NW 61 12 0,0
03.07.2020 15:00:00 11,2 5,7 13,8 17,1 12,0 9,6 11 6 19 10 NW 57 6 0,0
03.07.2020 14:00:00 10,6 3,5 15,5 16,2 11,8 9,6 13 7 21 12 NNE 58 4 0,0
03.07.2020 13:00:00 9,7 5,9 14,3 14,1 11,6 9,6 11 6 20 11 N 49 1 0,0
03.07.2020 12:00:00 8,2 6,3 9,7 13,4 11,5 9,6 14 8 20 11 NNE 41 0 0,0
03.07.2020 11:00:00 8,8 6,6 10,8 13,1 11,4 9,6 12 6 18 10 NNW 34 4 0,0
03.07.2020 10:00:00 8,4 6,5 10,5 11,8 11,5 9,6 11 6 17 9 NW 59 10 0,0
03.07.2020 09:00:00 7,9 6,5 9,7 10,5 11,5 9,5 9 5 18 10 NNW 50 23 0,0
03.07.2020 08:00:00 7,0 6,9 8,0 9,4 11,7 9,5 13 7 23 13 N 0,1 0 0,0
03.07.2020 07:00:00 7,1 7,1 7,5 9,3 11,8 9,5 16 9 28 15 N 0,1 0 0,0
03.07.2020 06:00:00 7,1 7,0 7,4 9,3 11,9 9,5 19 10 29 16 NNW 0,1 0 0,0
03.07.2020 05:00:00 7,1 7,0 7,4 9,5 12,1 9,5 19 10 25 14 NNW 0,1 0 0,0
03.07.2020 04:00:00 7,2 7,1 7,5 9,6 12,2 9,5 13 7 31 17 NW 0,4 0 0,0
03.07.2020 03:00:00 7,3 7,1 7,6 9,9 12,4 9,5 23 12 34 18 NNW 0,4 0 0,0
03.07.2020 02:00:00 7,9 7,8 8,2 10,2 12,5 9,5 18 10 27 14 NNW 0,1 0 0,0
03.07.2020 01:00:00 8,3 8,2 8,6 10,4 12,7 9,5 19 11 31 17 NNW 0,1 0 0,0
03.07.2020 00:00:00 8,7 7,8 8,7 10,5 12,9 9,5 21 12 43 23 NW 39 0 0,0
02.07.2020 23:00:00 9,8 7,2 9,6 10,7 13,0 9,5 29 16 39 21 W 51 0 0,0
02.07.2020 22:00:00 10,0 7,2 9,5 11,0 13,2 9,5 25 14 34 18 W 59 0 0,0
02.07.2020 21:00:00 9,9 8,2 9,1 12,0 13,2 9,5 24 13 31 17 W 54 5 0,0
02.07.2020 20:00:00 10,2 8,7 10,4 12,7 13,3 9,5 25 13 36 19 W 44 0 0,0
02.07.2020 19:00:00 10,4 9,4 11,0 13,2 13,3 9,5 29 15 47 25 W 36 2 0,0
02.07.2020 18:00:00 10,6 9,1 10,9 13,8 13,3 9,5 37 20 61 33 W 47 19 0,0
02.07.2020 17:00:00 10,4 9,6 11,2 13,4 13,3 9,5 36 19 67 36 W 43 11 0,0
02.07.2020 16:00:00 9,9 9,9 11,2 13,0 13,4 9,5 43 23 62 34 WSW 0,2 0 0,0
02.07.2020 15:00:00 10,4 10,4 11,3 13,3 13,4 9,5 31 17 59 32 WSW - 0 0,0

tt = Température de l'air
td = dewpoint
tt 5cm = Température de l'air 5cm
tt -5cm = Température de l'air -5cm
tt -20cm = Température de l'air -20cm
tt -100cm = Température de l'air -100cm
ff = Vitesse du vent
fx = gusts
dd = Direction du vent
vv = visibility
sd = Ensoleillement
rr = Quantités de précipitations

stations d'obs. à proximité